Ukiah Municipal Airport Ukiah US
ICAO: KUKI
IATA: UKI
Category: Medium
Scheduled Services: No

Elevation: 614 ft
TransAlt. 18000 ft.

Airport Communications:
ASOS:119.275
OAKLAND CNTR:127.8
OAKLAND RDO:122
CTAF/UNICOM:123

KUKI Zoom In..

If you have problems with the map follow the link
https://www.worldairports.se/pages/airport.php?
ICAO=KUKI

Runways:

(A) RW 15 length 4423 ft width 150 ft
LOC 109.10 / hdg 151

(B) RW 33 length 4423 ft width 150 ft
LOC 109.10 / hdg 331

Location; KUKI
Day. 08 / Time. 18.16 Zulu
* Altimeter: 30.03
* Temperature: 12° c. 53.6°f.
* Wind from: 000° Speed 00 kn.
Dewpoint: 11° c.
Visibility: 10 Statute Miles.
Clouds: Scattered 800 ft.
Clouds: Scattered 1400 ft.
Clouds: Overcast 2400 ft.

KUKI 081816Z AUTO 00000KT 10SM SCT008 SCT014 OVC024 12/11 A3003 RMK AO2 T01220106


Wind - Calm.

 
 
jpsmedia worldairports.se 2019   terms of use